Aviation Digital Data Service (ADDS)

Output produced by METARs form (1730 UTC 05 July 2015)
found at http://www.aviationweather.gov/adds/metars/
 
KSBY 051654Z 11003KT 10SM BKN031 27/20 A3014 RMK AO2 SLP209 T02670200
KSBY 051140Z 0512/0612 05003KT 5SM BR SCT004 SCT015 
     TEMPO 0512/0513 3SM BR OVC010 
     FM051400 06004KT 6SM BR BKN020 
     FM051600 10006KT P6SM BKN050 
     FM060000 09003KT 6SM BR OVC100 
     FM060900 10003KT 4SM -RA BR OVC050